General Aviation Weather

Text Reports

Enter one or more of the following location identifiers separated by a space:

Zip Code, Four-Character ICAO or Three-Character IATA airport codes.

METAR - Aviation Routine Weather Report
KONZ - Grosse Ile, Michigan
Updated at 2:13 PM GMT on July 28, 2015 (10:13 AM EDT):
METAR KONZ 281413Z AUTO 00000KT 10SM CLR 28/18 A3004 RMK AO2
TAF - Terminal Area Forecast
KONZ - Grosse Ile, Michigan
Updated at 2:13 PM GMT on July 28, 2015 (10:13 AM EDT):
No TAF is currently available for this location.
Decoded:
No decoded TAF is available.
PIREP - Pilot Weather Report
KONZ - Grosse Ile, Michigan
Updated at 2:13 PM GMT on July 28, 2015 (10:13 AM EDT):
No PIREP is currently available for this location.
AIRMET - Airmens Meteorological Information
KONZ - Grosse Ile, Michigan
Updated at 2:13 PM GMT on July 28, 2015 (10:13 AM EDT):
No AIRMET is currently available for this location.
SIGMET - Significant Meteorological Information
KONZ - Grosse Ile, Michigan
Updated at 2:13 PM GMT on July 28, 2015 (10:13 AM EDT):
No SIGMET is currently available for this location.
NOTAM - Notice to Airmen
KONZ - Grosse Ile, Michigan
Updated at 2:13 PM GMT on July 28, 2015 (10:13 AM EDT):
No NOTAM is currently available for this location.
Forecast Area
KONZ - Grosse Ile, Michigan
Updated at 2:13 PM GMT on July 28, 2015 (10:13 AM EDT):
No NOTAM is currently available for this location.
Aviation Weather Maps